EDT,Max TemperatureF,Mean TemperatureF,Min TemperatureF,Max Dew PointF,MeanDew PointF,Min DewpointF,Max Humidity, Mean Humidity, Min Humidity, Max Sea Level PressureIn, Mean Sea Level PressureIn, Min Sea Level PressureIn, Max VisibilityMiles, Mean VisibilityMiles, Min VisibilityMiles, Max Wind SpeedMPH, Mean Wind SpeedMPH, Max Gust SpeedMPH,PrecipitationIn, CloudCover, Events, WindDirDegrees
2013-3-1,34,31,27,31,28,23,92,82,72,29.87,29.78,29.69,10,6,2,16,7,24,0.01,8,Snow,310
2013-3-2,27,24,21,22,18,14,88,78,68,29.90,29.87,29.85,10,7,2,14,9,17,T,8,Snow,269
2013-3-3,26,23,19,18,16,13,84,76,68,29.86,29.82,29.78,10,8,1,16,9,21,T,8,Snow,259
2013-3-4,26,22,18,20,15,11,81,69,57,29.99,29.89,29.81,10,8,1,20,12,25,T,8,Snow,262
2013-3-5,35,29,22,27,20,17,88,76,63,30.16,30.11,30.01,10,8,1,13,6,16,T,7,Snow,240
2013-3-6,39,35,31,30,28,27,89,77,64,30.25,30.19,30.12,10,10,8,28,14,33,0.00,7,,53
2013-3-7,34,32,29,27,23,20,78,71,63,30.32,30.27,30.22,10,9,2,23,11,28,T,8,Snow,37
2013-3-8,39,30,21,22,20,18,88,68,48,30.40,30.35,30.28,10,10,10,12,5,16,0.00,2,,15
2013-3-9,45,30,14,23,18,11,92,65,37,30.43,30.38,30.32,10,10,10,5,1,,0.00,0,,15
2013-3-10,45,33,21,30,26,19,92,73,53,30.30,30.15,30.04,10,10,10,13,4,14,0.00,2,,58
2013-3-11,50,43,35,35,31,27,82,68,53,30.05,29.94,29.80,10,10,10,16,4,22,T,5,Rain,51
2013-3-12,48,42,36,45,38,32,100,88,76,29.84,29.80,29.74,10,8,2,13,11,21,0.17,8,Rain,215
2013-3-13,39,35,31,32,28,23,89,72,54,29.86,29.81,29.77,10,10,6,18,10,26,T,7,Snow,227
2013-3-14,31,22,12,27,14,3,92,71,49,30.00,29.86,29.75,10,5,0,22,13,31,0.01,8,Fog-Snow,259
2013-3-15,34,23,12,28,19,5,85,69,53,30.01,29.72,29.59,10,6,0,16,8,21,0.01,6,Fog-Snow,251
2013-3-16,22,14,6,14,5,2,76,61,45,29.99,29.94,29.87,10,10,10,15,5,20,0.00,2,,300
2013-3-17,23,14,4,6,2,-3,83,61,39,30.41,30.20,29.98,10,10,10,16,5,21,T,1,,272
2013-3-18,30,16,2,18,6,-3,87,62,36,30.48,30.30,30.03,10,10,6,23,8,28,T,2,Snow,59
2013-3-19,35,30,24,32,27,19,100,89,78,29.98,29.80,29.70,10,3,0,18,8,31,0.16,8,Fog-Snow,69
2013-3-20,33,24,14,27,22,14,92,73,53,29.76,29.70,29.67,10,5,1,22,11,30,T,7,Snow,236
2013-3-21,34,27,19,20,16,13,75,60,45,29.73,29.70,29.67,10,10,10,22,12,29,T,6,,224
2013-3-22,31,26,21,24,20,10,88,69,50,29.81,29.72,29.66,10,6,1,18,9,24,T,7,Snow,251
2013-3-23,37,32,26,24,22,20,81,67,52,29.91,29.83,29.77,10,10,10,24,13,32,0.00,6,,271
2013-3-24,37,29,21,25,23,19,88,70,52,29.94,29.90,29.86,10,10,10,15,6,21,0.00,6,,303
2013-3-25,42,31,20,28,24,17,92,74,55,29.85,29.76,29.68,10,10,10,18,7,23,0.00,4,,54
2013-3-26,45,37,29,25,23,20,72,56,39,29.85,29.81,29.74,10,10,10,16,6,20,0.00,4,,307
2013-3-27,45,39,33,31,28,25,82,68,53,29.99,29.91,29.83,10,10,10,16,6,21,0.00,6,,261
2013-3-28,50,42,34,36,32,27,82,71,60,30.11,30.04,29.97,10,10,10,12,5,15,T,7,Rain,259
2013-3-29,47,40,32,37,32,28,92,73,53,30.14,30.11,30.09,10,10,8,16,8,20,0.04,6,Rain,240
2013-3-30,50,37,23,28,21,13,100,62,23,30.19,30.13,30.07,10,9,2,14,3,17,0.00,0,,252
2013-3-31,57,41,25,40,28,21,92,60,28,30.08,29.86,29.64,10,10,6,24,8,33,0.07,3,Rain,191